Time;durP1;ratioP1;P1;durP2;ratioP2;P2;SDS_P1;SDS_P2;PMS_P1;PMS_P2;Temp;Humidity;BMP_temperature;BMP_pressure;BME280_temperature;BME280_humidity;BME280_pressure;Samples;Min_cycle;Max_cycle;Signal;HPM_P1;HPM_P2
2022/04/23 00:00:08;;;;;;;11.48;7.90;;;12.20;60.80;;;;;;4736321;30;20052;-80
2022/04/23 00:02:34;;;;;;;9.38;7.32;;;12.10;60.80;;;;;;4736856;30;20061;-80
2022/04/23 00:04:59;;;;;;;9.95;8.02;;;12.10;61.10;;;;;;4735842;30;20056;-80
2022/04/23 00:07:25;;;;;;;9.07;7.32;;;12.10;61.00;;;;;;4720224;30;20059;-79
2022/04/23 00:09:50;;;;;;;10.80;7.20;;;12.00;61.00;;;;;;4737087;30;20052;-79
2022/04/23 00:12:16;;;;;;;11.90;8.02;;;12.00;61.30;;;;;;4736465;30;20497;-80
2022/04/23 00:14:43;;;;;;;11.20;7.95;;;12.00;61.40;;;;;;4735076;30;20056;-80
2022/04/23 00:17:09;;;;;;;10.48;8.45;;;11.90;61.50;;;;;;4736053;30;20059;-79
2022/04/23 00:19:35;;;;;;;12.52;8.60;;;11.90;61.70;;;;;;4736158;30;20052;-78
2022/04/23 00:22:01;;;;;;;10.30;8.50;;;11.80;61.80;;;;;;4736799;30;20048;-79
2022/04/23 00:24:27;;;;;;;10.77;9.07;;;11.80;61.90;;;;;;4720217;30;20554;-79
2022/04/23 00:26:52;;;;;;;12.50;9.48;;;11.80;62.20;;;;;;4735983;30;20130;-78
2022/04/23 00:29:18;;;;;;;14.35;10.05;;;11.70;62.10;;;;;;4719831;30;20061;-80
2022/04/23 00:31:43;;;;;;;12.88;10.25;;;11.70;62.30;;;;;;4720021;30;20402;-78
2022/04/23 00:34:09;;;;;;;12.32;10.00;;;11.70;62.30;;;;;;4720529;30;20114;-79
2022/04/23 00:36:35;;;;;;;11.85;10.23;;;11.60;62.30;;;;;;4719976;30;20049;-80
2022/04/23 00:39:00;;;;;;;11.48;9.77;;;11.70;62.60;;;;;;4737024;30;20056;-80
2022/04/23 00:44:10;;;;;;;11.00;9.80;;;11.60;62.80;;;;;;4735793;30;20398;-79
2022/04/23 00:46:36;;;;;;;13.82;11.10;;;11.60;62.70;;;;;;4742160;30;20052;-79
2022/04/23 00:49:08;;;;;;;15.57;11.82;;;11.60;63.00;;;;;;4742620;30;20051;-81
2022/04/23 00:51:35;;;;;;;11.98;10.23;;;11.60;63.10;;;;;;4742583;30;20462;-80
2022/04/23 00:54:05;;;;;;;14.30;10.85;;;11.60;63.40;;;;;;4736253;30;20099;-80
2022/04/23 00:56:31;;;;;;;13.73;10.75;;;11.50;63.30;;;;;;4735976;30;20063;-80
2022/04/23 00:58:57;;;;;;;14.98;10.30;;;11.40;63.50;;;;;;4718617;30;20060;-80
2022/04/23 01:01:24;;;;;;;14.88;11.50;;;11.40;63.30;;;;;;4735132;30;20106;-80
2022/04/23 01:03:52;;;;;;;12.38;10.13;;;11.50;63.50;;;;;;4736142;30;20063;-79
2022/04/23 01:06:19;;;;;;;12.68;10.50;;;11.40;63.60;;;;;;4735512;30;20048;-80
2022/04/23 01:08:46;;;;;;;14.35;11.95;;;11.30;63.60;;;;;;4720486;30;20492;-80
2022/04/23 01:11:12;;;;;;;15.30;12.10;;;11.30;63.80;;;;;;4719255;30;20057;-80
2022/04/23 01:13:37;;;;;;;12.48;11.18;;;11.30;64.00;;;;;;4735210;30;20052;-80
2022/04/23 01:16:05;;;;;;;14.38;11.90;;;11.30;64.10;;;;;;4735829;30;20052;-80
2022/04/23 01:18:32;;;;;;;16.65;11.60;;;11.20;64.10;;;;;;4734771;30;20055;-80
2022/04/23 01:20:59;;;;;;;13.02;11.30;;;11.20;64.30;;;;;;4719994;30;20045;-80
2022/04/23 01:23:25;;;;;;;13.95;11.90;;;11.20;64.40;;;;;;4719681;30;20063;-80
2022/04/23 01:25:54;;;;;;;13.05;11.63;;;11.10;64.30;;;;;;4735055;30;20056;-79
2022/04/23 01:28:21;;;;;;;17.23;12.70;;;11.10;64.50;;;;;;4735211;30;20110;-81
2022/04/23 01:30:51;;;;;;;12.77;11.45;;;11.20;64.70;;;;;;4735524;30;20041;-80
2022/04/23 01:33:17;;;;;;;16.30;12.48;;;11.10;64.60;;;;;;4734281;30;20091;-79
2022/04/23 01:35:43;;;;;;;14.70;12.18;;;11.10;64.80;;;;;;4735424;30;20048;-79
2022/04/23 01:38:10;;;;;;;16.75;13.13;;;11.10;64.80;;;;;;4719463;30;20099;-79
2022/04/23 01:40:36;;;;;;;15.88;13.18;;;11.00;64.90;;;;;;4735034;30;20088;-80
2022/04/23 01:43:02;;;;;;;14.95;12.30;;;11.10;65.10;;;;;;4735180;30;20138;-79
2022/04/23 01:45:28;;;;;;;13.57;12.18;;;11.00;65.10;;;;;;4735560;30;20063;-80
2022/04/23 01:47:53;;;;;;;15.43;12.13;;;11.00;65.30;;;;;;4735383;30;20041;-78
2022/04/23 01:50:19;;;;;;;14.93;12.50;;;11.00;65.20;;;;;;4719705;30;20050;-80
2022/04/23 01:52:46;;;;;;;15.85;12.63;;;11.00;65.20;;;;;;4719145;30;20044;-79
2022/04/23 01:55:11;;;;;;;14.68;12.68;;;11.00;65.30;;;;;;4735131;30;20559;-79
2022/04/23 01:57:37;;;;;;;16.35;12.57;;;11.10;65.40;;;;;;4719198;30;20127;-79
2022/04/23 02:00:15;;;;;;;18.27;12.85;;;10.90;65.30;;;;;;4719006;30;20426;-78
2022/04/23 02:02:42;;;;;;;14.90;11.77;;;10.90;65.50;;;;;;4714682;30;20433;-81
2022/04/23 02:05:08;;;;;;;16.52;13.82;;;10.90;65.50;;;;;;4734928;30;20057;-81
2022/04/23 02:07:42;;;;;;;16.08;12.88;;;10.90;65.60;;;;;;4734585;30;20052;-81
2022/04/23 02:10:13;;;;;;;14.10;12.03;;;10.90;65.60;;;;;;4735196;30;20059;-79
2022/04/23 02:12:40;;;;;;;15.00;12.07;;;10.80;65.80;;;;;;4735029;30;20045;-79
2022/04/23 02:15:10;;;;;;;13.40;11.57;;;10.80;65.60;;;;;;4719481;30;20060;-79
2022/04/23 02:17:38;;;;;;;13.50;12.07;;;10.90;65.70;;;;;;4734274;30;20106;-80
2022/04/23 02:20:05;;;;;;;14.68;12.50;;;10.80;65.70;;;;;;4719428;30;20057;-80
2022/04/23 02:22:31;;;;;;;13.95;11.43;;;10.80;65.70;;;;;;4734687;30;20057;-80
2022/04/23 02:24:56;;;;;;;15.57;12.27;;;10.80;65.60;;;;;;4735240;30;20555;-80
2022/04/23 02:27:23;;;;;;;15.85;12.57;;;10.80;66.10;;;;;;4733731;30;20095;-80
2022/04/23 02:29:52;;;;;;;16.40;13.00;;;10.80;65.80;;;;;;4718575;30;20064;-81
2022/04/23 02:32:18;;;;;;;13.60;11.30;;;10.80;65.70;;;;;;4734620;30;20105;-81
2022/04/23 02:34:44;;;;;;;13.20;10.95;;;10.80;65.70;;;;;;4734876;30;20139;-81
2022/04/23 02:37:11;;;;;;;12.77;10.90;;;10.70;65.70;;;;;;4718847;30;20053;-80
2022/04/23 02:39:39;;;;;;;14.25;10.65;;;10.70;65.80;;;;;;4734648;30;20095;-80
2022/04/23 02:42:05;;;;;;;14.70;10.80;;;10.70;65.80;;;;;;4734770;30;20072;-81
2022/04/23 02:44:31;;;;;;;13.15;10.43;;;10.60;65.90;;;;;;4735006;30;20056;-80
2022/04/23 02:46:57;;;;;;;12.75;9.48;;;10.60;66.20;;;;;;4734655;30;20044;-81
2022/04/23 02:49:22;;;;;;;14.90;10.02;;;10.60;66.10;;;;;;4734578;30;20053;-79
2022/04/23 02:51:51;;;;;;;15.18;9.82;;;10.50;66.40;;;;;;4718737;30;20425;-79
2022/04/23 02:54:17;;;;;;;12.95;9.68;;;10.50;66.40;;;;;;4734756;30;20056;-79
2022/04/23 02:56:45;;;;;;;14.07;10.50;;;10.50;66.50;;;;;;4734363;30;20522;-78
2022/04/23 02:59:11;;;;;;;13.63;9.98;;;10.50;66.70;;;;;;4734803;30;20076;-79
2022/04/23 03:01:36;;;;;;;11.95;9.60;;;10.40;66.90;;;;;;4718982;30;20057;-79
2022/04/23 03:04:02;;;;;;;14.25;10.57;;;10.40;66.90;;;;;;4734254;30;20084;-79
2022/04/23 03:06:30;;;;;;;11.82;9.93;;;10.40;66.90;;;;;;4719030;30;20053;-79
2022/04/23 03:08:56;;;;;;;15.00;10.90;;;10.40;66.90;;;;;;4734137;30;20575;-79
2022/04/23 03:11:23;;;;;;;14.18;10.52;;;10.40;67.00;;;;;;4734642;30;20055;-79
2022/04/23 03:13:48;;;;;;;11.52;10.20;;;10.40;67.00;;;;;;4734360;30;20091;-79
2022/04/23 03:16:14;;;;;;;12.30;10.32;;;10.30;67.10;;;;;;4734839;30;20053;-80
2022/04/23 03:18:39;;;;;;;14.80;10.60;;;10.30;67.10;;;;;;4734005;30;20041;-80
2022/04/23 03:21:05;;;;;;;14.35;10.80;;;10.30;67.00;;;;;;4735036;30;20383;-80
2022/04/23 03:23:31;;;;;;;11.88;9.68;;;10.30;67.10;;;;;;4737096;30;20103;-80
2022/04/23 03:25:57;;;;;;;13.15;11.25;;;10.30;67.10;;;;;;4722001;30;20068;-79
2022/04/23 03:28:23;;;;;;;12.70;10.93;;;10.20;67.00;;;;;;4737550;30;20052;-80
2022/04/23 03:30:48;;;;;;;15.13;11.02;;;10.30;67.20;;;;;;4722068;30;20509;-79
2022/04/23 03:33:14;;;;;;;13.77;10.18;;;10.20;67.00;;;;;;4736625;30;20053;-79
2022/04/23 03:35:40;;;;;;;14.00;11.02;;;10.20;67.20;;;;;;4716913;30;20065;-80
2022/04/23 03:38:05;;;;;;;11.52;9.85;;;10.30;67.20;;;;;;4737402;30;20123;-81
2022/04/23 03:40:31;;;;;;;13.25;10.00;;;10.30;67.20;;;;;;4737330;30;20087;-81
2022/04/23 03:42:57;;;;;;;13.13;9.85;;;10.20;67.30;;;;;;4721526;30;20497;-80
2022/04/23 03:45:24;;;;;;;13.55;11.40;;;10.10;67.20;;;;;;4721653;30;20402;-80
2022/04/23 03:47:50;;;;;;;13.02;10.63;;;10.10;67.30;;;;;;4737211;30;20501;-79
2022/04/23 03:50:17;;;;;;;14.88;11.27;;;10.10;67.40;;;;;;4735909;30;20053;-79
2022/04/23 03:52:43;;;;;;;15.10;11.60;;;10.10;67.40;;;;;;4721362;30;20045;-79
2022/04/23 03:55:11;;;;;;;13.77;10.52;;;10.10;67.50;;;;;;4720633;30;20053;-80
2022/04/23 03:57:48;;;;;;;16.20;10.18;;;10.10;67.50;;;;;;4737341;30;20051;-80
2022/04/23 04:00:16;;;;;;;14.23;10.57;;;10.00;67.70;;;;;;4736487;30;20056;-80
2022/04/23 04:02:43;;;;;;;15.02;10.82;;;10.00;67.60;;;;;;4737414;30;20421;-80
2022/04/23 04:05:10;;;;;;;13.70;10.82;;;10.00;67.60;;;;;;4720217;30;20130;-81
2022/04/23 04:07:35;;;;;;;14.90;11.35;;;10.00;67.70;;;;;;4736512;30;20548;-79
2022/04/23 04:10:01;;;;;;;14.15;12.07;;;10.00;67.80;;;;;;4736424;30;20044;-80
2022/04/23 04:12:28;;;;;;;14.13;11.00;;;9.90;67.60;;;;;;4737276;30;20052;-80
2022/04/23 04:14:54;;;;;;;11.27;10.05;;;9.90;67.70;;;;;;4736400;30;20118;-80
2022/04/23 04:17:19;;;;;;;13.35;10.70;;;9.90;67.70;;;;;;4737083;30;20049;-81
2022/04/23 04:19:45;;;;;;;13.13;10.68;;;9.90;67.70;;;;;;4736359;30;20409;-80
2022/04/23 04:22:11;;;;;;;13.07;11.13;;;9.90;67.70;;;;;;4735291;30;20049;-80
2022/04/23 04:24:37;;;;;;;14.45;10.48;;;9.80;67.60;;;;;;4736644;30;20139;-80
2022/04/23 04:27:06;;;;;;;13.85;11.70;;;9.80;67.70;;;;;;4720229;30;20068;-80
2022/04/23 04:29:31;;;;;;;15.65;10.43;;;9.80;67.70;;;;;;4736779;30;20079;-81
2022/04/23 04:31:57;;;;;;;14.15;11.02;;;9.80;68.10;;;;;;4735100;30;20092;-80
2022/04/23 04:34:28;;;;;;;16.05;11.27;;;9.70;67.70;;;;;;4736489;30;20486;-80
2022/04/23 04:37:10;;;;;;;14.15;10.20;;;9.70;67.90;;;;;;4719989;30;20055;-80
2022/04/23 04:39:41;;;;;;;14.35;10.75;;;9.70;68.00;;;;;;4720724;30;20590;-80
2022/04/23 04:42:07;;;;;;;15.07;10.68;;;9.70;68.00;;;;;;4736113;30;20057;-80
2022/04/23 04:44:34;;;;;;;13.43;11.27;;;9.60;67.90;;;;;;4720581;30;20519;-79
2022/04/23 04:47:00;;;;;;;12.48;10.52;;;9.70;67.90;;;;;;4736297;30;20075;-80
2022/04/23 04:49:25;;;;;;;12.57;11.15;;;9.60;68.00;;;;;;4735935;30;20040;-80
2022/04/23 04:51:52;;;;;;;14.00;10.68;;;9.70;68.10;;;;;;4720042;30;20479;-80
2022/04/23 04:54:18;;;;;;;14.80;10.73;;;9.60;68.00;;;;;;4736591;30;20178;-80
2022/04/23 04:56:45;;;;;;;16.55;11.27;;;9.60;68.20;;;;;;4735161;30;20131;-80
2022/04/23 04:59:11;;;;;;;14.35;10.65;;;9.60;68.20;;;;;;4735676;30;20061;-80
2022/04/23 05:01:37;;;;;;;14.25;11.05;;;9.70;68.20;;;;;;4720185;30;20048;-78
2022/04/23 05:04:02;;;;;;;12.73;10.40;;;9.60;68.30;;;;;;4720114;30;20098;-80
2022/04/23 05:06:28;;;;;;;11.25;10.05;;;9.60;68.10;;;;;;4735373;30;20048;-80
2022/04/23 05:08:54;;;;;;;14.23;11.02;;;9.70;68.20;;;;;;4719540;30;20048;-79
2022/04/23 05:11:19;;;;;;;14.27;10.55;;;9.70;68.10;;;;;;4736042;30;20053;-79
2022/04/23 05:13:45;;;;;;;14.02;10.27;;;9.70;68.00;;;;;;4735899;30;20052;-80
2022/04/23 05:16:11;;;;;;;11.80;10.05;;;9.80;67.90;;;;;;4719665;30;20068;-79
2022/04/23 05:18:36;;;;;;;13.32;10.25;;;9.80;67.80;;;;;;4735871;30;20057;-77
2022/04/23 05:21:02;;;;;;;13.93;10.00;;;9.90;67.60;;;;;;4735291;30;20063;-78
2022/04/23 05:23:29;;;;;;;15.40;9.75;;;9.90;67.40;;;;;;4734215;30;20512;-79
2022/04/23 05:25:55;;;;;;;12.73;10.25;;;9.90;67.30;;;;;;4736044;30;20048;-80
2022/04/23 05:28:21;;;;;;;12.93;9.77;;;9.90;67.20;;;;;;4733546;30;20532;-79
2022/04/23 05:30:46;;;;;;;10.82;9.40;;;10.00;67.10;;;;;;4735573;30;20104;-79
2022/04/23 05:33:12;;;;;;;11.63;9.27;;;10.00;67.00;;;;;;4719783;30;20072;-80
2022/04/23 05:35:38;;;;;;;12.90;9.18;;;10.10;66.70;;;;;;4735662;30;20048;-79
2022/04/23 05:38:05;;;;;;;10.38;9.30;;;10.10;66.40;;;;;;4735447;30;20048;-80
2022/04/23 05:40:31;;;;;;;11.93;9.63;;;10.20;66.20;;;;;;4734965;30;20146;-81
2022/04/23 05:42:59;;;;;;;13.15;9.73;;;10.20;65.90;;;;;;4719312;30;20052;-80
2022/04/23 05:45:30;;;;;;;11.07;9.93;;;10.30;65.80;;;;;;4735240;30;20045;-80
2022/04/23 05:47:57;;;;;;;10.20;8.48;;;10.30;65.40;;;;;;4719102;30;20128;-79
2022/04/23 05:50:23;;;;;;;11.00;9.68;;;10.40;65.10;;;;;;4735137;30;20079;-81
2022/04/23 05:52:49;;;;;;;10.32;8.85;;;10.50;64.90;;;;;;4734889;30;20086;-80
2022/04/23 05:55:15;;;;;;;11.15;8.88;;;10.60;64.70;;;;;;4719381;30;20403;-80
2022/04/23 05:57:40;;;;;;;10.35;8.88;;;10.60;64.50;;;;;;4735659;30;20040;-80
2022/04/23 06:00:09;;;;;;;14.90;9.27;;;10.80;64.20;;;;;;4722618;30;20426;-79
2022/04/23 06:02:35;;;;;;;11.68;8.40;;;10.80;63.50;;;;;;4746710;30;20033;-78
2022/04/23 06:05:01;;;;;;;11.85;8.63;;;10.90;63.00;;;;;;4733613;30;20057;-79
2022/04/23 06:07:27;;;;;;;10.85;9.10;;;11.00;62.70;;;;;;4746746;30;20072;-80
2022/04/23 06:09:52;;;;;;;10.82;8.52;;;11.10;62.30;;;;;;4736145;30;20056;-81
2022/04/23 06:12:18;;;;;;;11.77;9.10;;;11.20;62.00;;;;;;4735112;30;20128;-80
2022/04/23 06:14:44;;;;;;;10.68;8.50;;;11.30;61.80;;;;;;4734005;30;21388;-78
2022/04/23 06:17:13;;;;;;;9.55;8.43;;;11.30;61.40;;;;;;4735076;30;20047;-77
2022/04/23 06:19:39;;;;;;;11.20;8.77;;;11.40;61.20;;;;;;4735062;30;20458;-77
2022/04/23 06:22:06;;;;;;;10.95;9.52;;;11.50;60.80;;;;;;4732040;30;20429;-81
2022/04/23 06:24:35;;;;;;;10.77;9.25;;;11.50;60.50;;;;;;4718956;30;20084;-80
2022/04/23 06:27:01;;;;;;;11.63;9.27;;;11.70;60.30;;;;;;4734729;30;20045;-80
2022/04/23 06:29:27;;;;;;;10.32;9.15;;;11.70;59.70;;;;;;4735294;30;20056;-79
2022/04/23 06:31:53;;;;;;;11.98;9.35;;;11.70;59.60;;;;;;4734957;30;20047;-79
2022/04/23 06:34:20;;;;;;;10.50;9.40;;;11.80;59.60;;;;;;4734923;30;20127;-79
2022/04/23 06:36:45;;;;;;;10.23;9.23;;;11.90;59.70;;;;;;4734242;30;20052;-79
2022/04/23 06:39:11;;;;;;;10.77;9.68;;;12.00;59.20;;;;;;4705037;30;20056;-80
2022/04/23 06:41:36;;;;;;;12.38;9.52;;;12.00;59.20;;;;;;4734169;30;20052;-79
2022/04/23 06:44:02;;;;;;;13.63;10.60;;;12.00;58.90;;;;;;4718673;30;20045;-79
2022/04/23 06:46:28;;;;;;;12.55;10.07;;;12.10;59.30;;;;;;4717225;30;20582;-78
2022/04/23 06:48:54;;;;;;;12.73;9.93;;;12.20;59.10;;;;;;4713473;30;20049;-79
2022/04/23 06:51:20;;;;;;;10.93;9.20;;;12.20;58.60;;;;;;4732727;30;20110;-78
2022/04/23 06:53:45;;;;;;;13.32;10.77;;;12.20;58.60;;;;;;4734294;30;20433;-80
2022/04/23 06:56:11;;;;;;;12.10;9.88;;;12.30;58.80;;;;;;4734906;30;20048;-78
2022/04/23 06:58:36;;;;;;;14.35;10.77;;;12.40;58.70;;;;;;4737471;30;20045;-79
2022/04/23 07:01:03;;;;;;;12.02;9.90;;;12.50;57.90;;;;;;4721461;30;20069;-79
2022/04/23 07:03:29;;;;;;;11.40;10.00;;;12.50;58.10;;;;;;4737356;30;20057;-80
2022/04/23 07:05:55;;;;;;;10.77;9.68;;;12.60;57.40;;;;;;4736343;30;20049;-80
2022/04/23 07:08:21;;;;;;;13.52;11.20;;;12.60;57.40;;;;;;4722003;30;20056;-79
2022/04/23 07:10:46;;;;;;;12.95;10.30;;;12.70;57.50;;;;;;4721418;30;20056;-82
2022/04/23 07:13:12;;;;;;;11.82;9.93;;;12.70;57.20;;;;;;4737591;30;20056;-81
2022/04/23 07:15:41;;;;;;;13.02;10.75;;;12.80;56.90;;;;;;4737478;30;20052;-81
2022/04/23 07:18:07;;;;;;;11.15;9.95;;;12.90;56.30;;;;;;4721862;30;20056;-79
2022/04/23 07:20:33;;;;;;;11.95;9.50;;;12.90;56.60;;;;;;4736622;30;20056;-80
2022/04/23 07:25:43;;;;;;;13.23;10.93;;;13.10;56.30;;;;;;4736699;30;20057;-81
2022/04/23 07:28:09;;;;;;;10.38;9.32;;;13.20;56.10;;;;;;4720556;30;20131;-80
2022/04/23 07:30:35;;;;;;;12.85;10.98;;;13.20;56.10;;;;;;4720537;30;20053;-80
2022/04/23 07:33:01;;;;;;;14.05;10.07;;;13.30;55.70;;;;;;4737439;30;20083;-80
2022/04/23 07:38:17;;;;;;;11.43;10.32;;;13.50;55.20;;;;;;4736402;30;20059;-83
2022/04/23 07:40:43;;;;;;;11.65;9.80;;;13.60;55.20;;;;;;4737208;30;20062;-82
2022/04/23 07:43:14;;;;;;;11.90;10.65;;;13.60;55.40;;;;;;4736547;30;20087;-81
2022/04/23 07:45:41;;;;;;;12.77;10.18;;;13.70;54.10;;;;;;4722054;30;20052;-81
2022/04/23 07:48:09;;;;;;;11.77;10.27;;;13.80;54.50;;;;;;4735991;30;20060;-81
2022/04/23 07:50:36;;;;;;;10.65;9.55;;;13.90;54.10;;;;;;4736650;30;20044;-82
2022/04/23 07:53:03;;;;;;;14.27;10.52;;;13.90;54.00;;;;;;4734382;30;20064;-82
2022/04/23 07:55:38;;;;;;;13.88;10.60;;;13.90;53.80;;;;;;4732657;30;20152;-81
2022/04/23 07:58:04;;;;;;;13.50;10.95;;;14.10;53.90;;;;;;4733357;30;20085;-81
2022/04/23 08:00:31;;;;;;;11.93;10.73;;;14.20;54.00;;;;;;4719009;30;20149;-79
2022/04/23 08:02:58;;;;;;;12.77;11.05;;;14.20;53.50;;;;;;4735015;30;20139;-81
2022/04/23 08:05:24;;;;;;;12.20;10.55;;;14.30;53.20;;;;;;4719993;30;20053;-80
2022/04/23 08:07:50;;;;;;;13.80;11.07;;;14.30;52.70;;;;;;4735944;30;20056;-80
2022/04/23 08:10:16;;;;;;;13.50;10.77;;;14.40;52.90;;;;;;4735833;30;20051;-81
2022/04/23 08:12:42;;;;;;;12.02;10.23;;;14.60;52.40;;;;;;4736105;30;20091;-81
2022/04/23 08:15:08;;;;;;;11.27;10.00;;;14.60;52.30;;;;;;4736214;30;20131;-80
2022/04/23 08:17:34;;;;;;;14.63;10.35;;;14.80;52.10;;;;;;4736993;30;20429;-80
2022/04/23 08:20:00;;;;;;;11.25;9.70;;;14.90;49.80;;;;;;4719922;30;20068;-79
2022/04/23 08:22:26;;;;;;;11.50;9.27;;;14.90;49.20;;;;;;4731993;30;20076;-81
2022/04/23 08:24:52;;;;;;;10.95;9.43;;;14.90;49.80;;;;;;4720637;30;20057;-81
2022/04/23 08:27:17;;;;;;;12.68;9.70;;;15.00;49.80;;;;;;4736100;30;20052;-81
2022/04/23 08:32:27;;;;;;;13.48;9.80;;;15.10;48.20;;;;;;4736872;30;20057;-79
2022/04/23 08:34:53;;;;;;;11.40;9.00;;;15.10;48.40;;;;;;4736414;30;20056;-80
2022/04/23 08:37:19;;;;;;;11.48;8.80;;;15.20;49.00;;;;;;4735467;30;20045;-81
2022/04/23 08:39:47;;;;;;;13.48;9.02;;;15.20;48.20;;;;;;4728160;30;20051;-81
2022/04/23 08:42:16;;;;;;;10.70;8.70;;;15.30;47.60;;;;;;4736054;30;20059;-80
2022/04/23 08:44:45;;;;;;;11.40;8.77;;;15.30;48.00;;;;;;4735068;30;20521;-80
2022/04/23 08:47:11;;;;;;;9.07;8.15;;;15.40;47.10;;;;;;4734465;30;20044;-81
2022/04/23 08:49:41;;;;;;;14.23;9.23;;;15.40;46.90;;;;;;4735886;30;20052;-82
2022/04/23 08:52:16;;;;;;;11.50;8.88;;;15.40;46.60;;;;;;4735713;30;20168;-82
2022/04/23 08:54:42;;;;;;;10.23;8.27;;;15.40;47.20;;;;;;4719576;30;20393;-83
2022/04/23 08:57:07;;;;;;;10.20;8.50;;;15.40;46.70;;;;;;4718638;30;20139;-78
2022/04/23 08:59:34;;;;;;;10.18;8.32;;;15.60;46.70;;;;;;4718760;30;20071;-77
2022/04/23 09:02:01;;;;;;;10.93;8.88;;;15.60;47.30;;;;;;4735621;30;20128;-77
2022/04/23 09:04:27;;;;;;;10.10;8.60;;;15.70;46.20;;;;;;4720499;30;20087;-77
2022/04/23 09:06:54;;;;;;;10.55;8.55;;;15.70;46.00;;;;;;4736231;30;20562;-78
2022/04/23 09:09:23;;;;;;;10.70;8.65;;;15.70;46.40;;;;;;4735376;30;20482;-78
2022/04/23 09:11:50;;;;;;;9.55;8.55;;;15.70;46.00;;;;;;4735526;30;20378;-79
2022/04/23 09:14:33;;;;;;;12.18;9.20;;;15.70;46.00;;;;;;4705841;30;20079;-77
2022/04/23 09:25:15;;;;;;;;;;;15.70;46.50;;;;;;4736356;30;20380;-77
2022/04/23 09:27:43;;;;;;;12.15;9.48;;;15.70;46.20;;;;;;4719889;30;19984;-78
2022/04/23 09:30:10;;;;;;;11.85;9.30;;;15.70;46.80;;;;;;4735603;30;20088;-78
2022/04/23 09:32:36;;;;;;;10.25;8.90;;;15.80;46.00;;;;;;4720209;30;20521;-77
2022/04/23 09:35:05;;;;;;;15.95;9.32;;;15.80;46.00;;;;;;4719785;30;20056;-77
2022/04/23 09:38:11;;;;;;;10.88;9.10;;;15.80;46.40;;;;;;4719703;30;20051;-77
2022/04/23 09:40:21;;;;;;;12.15;9.60;;;15.90;46.80;;;;;;4719794;30;20118;-77
2022/04/23 09:43:05;;;;;;;11.85;10.20;;;16.10;46.40;;;;;;4735566;30;20508;-78
2022/04/23 09:45:32;;;;;;;10.63;9.35;;;16.10;45.70;;;;;;4719862;30;20504;-79
2022/04/23 09:48:16;;;;;;;11.00;9.73;;;16.10;45.90;;;;;;4719624;30;20049;-78
2022/04/23 09:50:47;;;;;;;10.43;9.30;;;16.10;46.10;;;;;;4735489;30;20059;-77
2022/04/23 09:53:20;;;;;;;10.95;9.15;;;16.10;45.90;;;;;;4735046;30;20045;-78
2022/04/23 09:55:47;;;;;;;13.52;9.98;;;16.20;45.70;;;;;;4735590;30;20052;-78
2022/04/23 09:58:14;;;;;;;13.05;10.00;;;16.30;45.70;;;;;;4735465;30;20051;-77
2022/04/23 10:00:41;;;;;;;15.25;10.93;;;16.30;45.20;;;;;;4735362;30;20417;-78
2022/04/23 10:03:09;;;;;;;11.18;9.23;;;16.30;46.40;;;;;;4719126;30;20059;-75
2022/04/23 10:05:42;;;;;;;12.50;10.25;;;16.40;45.90;;;;;;4735355;30;20141;-76
2022/04/23 10:08:11;;;;;;;10.77;9.68;;;16.40;44.90;;;;;;4735095;30;20060;-79
2022/04/23 10:10:42;;;;;;;11.88;10.57;;;16.50;45.00;;;;;;4735376;30;20406;-76
2022/04/23 10:13:10;;;;;;;14.90;10.35;;;16.50;45.30;;;;;;4719640;30;20382;-78
2022/04/23 10:15:37;;;;;;;11.10;10.00;;;16.50;44.70;;;;;;4735063;30;20053;-78
2022/04/23 10:18:07;;;;;;;11.90;10.77;;;16.50;45.80;;;;;;4719543;30;20064;-78
2022/04/23 10:20:34;;;;;;;12.38;10.70;;;16.60;45.90;;;;;;4719226;30;20048;-78
2022/04/23 10:23:21;;;;;;;11.55;10.18;;;16.60;46.10;;;;;;4719460;30;20060;-79
2022/04/23 10:26:03;;;;;;;11.50;10.35;;;16.70;45.30;;;;;;4735102;30;20049;-77
2022/04/23 10:28:29;;;;;;;12.95;11.38;;;16.80;44.20;;;;;;4718635;30;20056;-77
2022/04/23 10:31:15;;;;;;;12.43;10.27;;;16.80;45.00;;;;;;4721581;30;20138;-77
2022/04/23 10:33:52;;;;;;;13.48;10.32;;;16.80;45.00;;;;;;4723161;30;20048;-77
2022/04/23 10:36:19;;;;;;;13.30;10.70;;;16.80;45.50;;;;;;4722761;30;20053;-77
2022/04/23 10:38:51;;;;;;;12.40;10.23;;;16.90;45.10;;;;;;4722710;30;20056;-77
2022/04/23 10:41:19;;;;;;;12.85;11.45;;;17.00;44.80;;;;;;4723168;30;20064;-78
2022/04/23 10:43:49;;;;;;;14.68;10.82;;;17.00;44.70;;;;;;4738432;30;20474;-77
2022/04/23 10:46:36;;;;;;;11.02;9.95;;;17.00;44.00;;;;;;4738447;30;20119;-77
2022/04/23 10:49:13;;;;;;;15.05;10.45;;;17.00;44.80;;;;;;4738375;30;20068;-78
2022/04/23 10:51:50;;;;;;;11.75;9.98;;;17.10;44.50;;;;;;4738445;30;20425;-77
2022/04/23 10:54:19;;;;;;;13.38;10.50;;;17.10;43.70;;;;;;4722557;30;20498;-78
2022/04/23 10:56:50;;;;;;;11.27;9.57;;;17.10;44.20;;;;;;4738089;30;21658;-78
2022/04/23 10:59:44;;;;;;;13.18;11.00;;;17.20;44.40;;;;;;4737983;30;20102;-78
2022/04/23 11:02:33;;;;;;;13.30;10.23;;;17.20;43.80;;;;;;4723036;30;20072;-78
2022/04/23 11:13:40;;;;;;;12.90;10.65;;;17.30;43.30;;;;;;4633242;30;20056;-78
2022/04/23 11:16:10;;;;;;;14.15;11.35;;;17.30;42.90;;;;;;4619143;31;20573;-78
2022/04/23 11:18:37;;;;;;;12.43;11.13;;;17.30;42.30;;;;;;4616121;31;20067;-78
2022/04/23 11:21:26;;;;;;;13.52;10.07;;;17.40;43.70;;;;;;4628183;31;20078;-79
2022/04/23 11:23:53;;;;;;;12.15;10.88;;;17.40;42.40;;;;;;4633006;31;20095;-78
2022/04/23 11:26:22;;;;;;;13.90;9.82;;;17.40;41.60;;;;;;4604978;31;20124;-79
2022/04/23 11:29:00;;;;;;;13.02;10.52;;;17.40;42.60;;;;;;4602654;31;20120;-77
2022/04/23 11:31:26;;;;;;;12.00;10.30;;;17.40;41.60;;;;;;4616167;31;20087;-76
2022/04/23 11:33:57;;;;;;;12.35;10.60;;;17.40;40.90;;;;;;4601636;31;20087;-79
2022/04/23 11:36:30;;;;;;;13.70;9.82;;;17.30;41.90;;;;;;4602363;31;20106;-79
2022/04/23 11:38:57;;;;;;;9.80;8.80;;;17.30;43.30;;;;;;4602397;31;20154;-79
2022/04/23 11:41:33;;;;;;;9.88;8.88;;;17.40;42.70;;;;;;4636999;30;20322;-78
2022/04/23 11:44:15;;;;;;;11.35;10.15;;;17.50;42.50;;;;;;4671314;30;20106;-76
2022/04/23 11:46:48;;;;;;;19.88;10.98;;;17.50;41.70;;;;;;4671901;30;20481;-77
2022/04/23 11:49:33;;;;;;;10.95;9.13;;;17.50;42.00;;;;;;4737832;30;20048;-78
2022/04/23 11:52:17;;;;;;;12.35;9.60;;;17.60;42.00;;;;;;4737255;30;20060;-77
2022/04/23 11:54:44;;;;;;;12.20;9.77;;;17.70;41.90;;;;;;4737553;30;20063;-77
2022/04/23 11:57:15;;;;;;;12.02;9.40;;;17.70;41.10;;;;;;4737236;30;20048;-77
2022/04/23 11:59:46;;;;;;;11.02;8.77;;;17.70;41.80;;;;;;4736048;30;20052;-78
2022/04/23 12:02:24;;;;;;;9.85;8.57;;;17.70;41.30;;;;;;4720898;30;20138;-78
2022/04/23 12:04:52;;;;;;;10.90;9.15;;;17.80;41.00;;;;;;4735917;30;20061;-77
2022/04/23 12:07:20;;;;;;;9.88;8.50;;;17.80;40.20;;;;;;4737269;30;20049;-78
2022/04/23 12:09:52;;;;;;;11.13;8.75;;;17.80;40.10;;;;;;4737234;30;20051;-78
2022/04/23 12:12:23;;;;;;;11.27;8.63;;;17.80;39.80;;;;;;4736953;30;20054;-78
2022/04/23 12:14:50;;;;;;;10.65;9.55;;;17.80;39.70;;;;;;4736773;30;20041;-77
2022/04/23 12:17:23;;;;;;;10.15;7.97;;;17.80;39.70;;;;;;4722000;30;20132;-77
2022/04/23 12:19:56;;;;;;;9.15;8.23;;;17.80;39.80;;;;;;4737078;30;20501;-77
2022/04/23 12:22:32;;;;;;;13.98;8.48;;;17.80;40.60;;;;;;4737054;30;20118;-78
2022/04/23 12:25:10;;;;;;;12.25;8.52;;;17.80;40.90;;;;;;4720371;30;20052;-78
2022/04/23 12:27:58;;;;;;;9.88;8.35;;;17.80;41.00;;;;;;4736449;30;20044;-78
2022/04/23 12:42:01;;;;;;;9.07;8.15;;;17.90;39.30;;;;;;4735981;30;20510;-79
2022/04/23 12:44:41;;;;;;;8.40;7.55;;;17.90;39.20;;;;;;4736481;30;20375;-78
2022/04/23 12:47:08;;;;;;;7.68;6.80;;;17.90;38.50;;;;;;4736508;30;20056;-79
2022/04/23 12:49:54;;;;;;;10.45;6.90;;;17.90;38.70;;;;;;4721077;30;20491;-77
2022/04/23 12:52:21;;;;;;;9.35;7.50;;;17.90;38.50;;;;;;4735844;30;20049;-77
2022/04/23 12:55:17;;;;;;;8.70;6.93;;;17.90;38.40;;;;;;4734988;30;20068;-78
2022/04/23 12:57:43;;;;;;;6.93;6.30;;;17.90;38.50;;;;;;4735789;30;20403;-78
2022/04/23 13:00:16;;;;;;;9.63;6.38;;;17.90;37.70;;;;;;4717628;30;20061;-78
2022/04/23 13:02:43;;;;;;;8.27;6.22;;;17.90;38.10;;;;;;4717343;30;20049;-78
2022/04/23 13:05:11;;;;;;;7.32;6.15;;;17.90;38.90;;;;;;4718828;30;20056;-79
2022/04/23 13:10:22;;;;;;;11.00;7.50;;;18.00;38.50;;;;;;4718919;30;20406;-79
2022/04/23 13:12:48;;;;;;;9.13;6.80;;;18.00;37.80;;;;;;4716864;30;20132;-79
2022/04/23 13:15:15;;;;;;;7.47;6.78;;;18.00;38.00;;;;;;4717803;30;20084;-79
2022/04/23 13:17:42;;;;;;;9.75;6.13;;;18.00;38.10;;;;;;4717254;30;20134;-79
2022/04/23 13:20:10;;;;;;;7.50;6.18;;;18.10;37.50;;;;;;4718756;30;20060;-79